Hepzibah, WV

12:53 AM EST on November 27, 2014 (GMT -0500)
Benedum | Change Station
CLOSE
Current Station
Airport
Location: Clarksburg,
Elevation: 1204 ft
Nearby Weather Stations
Active Advisory: Special Statement Active Notice: Public Information Statement

Elev 1204 ft 39.30 °N, 80.23 °W | Updated 1 hour ago

Overcast
Overcast
34 °F
Feels Like 31 °F
N
4
Wind Variable Wind from SW

Today
High -- | Low -- °F
--% Chance of Precip.
Yesterday
High -- | Low -- °F
Precip. -- in
7:18 AM 4:59 PM
Waxing Crescent, 26% visible
Pressure 30.02 in
Visibility 6.0 miles
Clouds Overcast 800 ft
Windchill 31 °F
Dew Point 33 °F
Humidity 96%
Rainfall 0.36 in
Snow Depth Not available.
UV 0 out of 12
Pollen .10 out of 12
Air Quality Not available.
Flu Activity Not available.
METAR KCKB 270453Z AUTO 22003KT 6SM BR OVC008 01/01 A3001 RMK AO2 CIG 007V013 SLP165 T00110006 400220006

More Conditions Fewer Conditions

Pressure 30.02 in
Visibility 6.0 miles
Clouds Overcast 800 ft
Windchill 31 °F
Dew Point 33 °F
Humidity 96%
Rainfall 0.36 in
Snow Depth Not available.
UV 0 out of 12
Pollen .10 out of 12
Air Quality Not available.
Flu Activity Not available.
METAR KCKB 270453Z AUTO 22003KT 6SM BR OVC008 01/01 A3001 RMK AO2 CIG 007V013 SLP165 T00110006 400220006

More Conditions Fewer Conditions

10-Day Weather Forecast

Almanac

Astronomy

Nov. 27, 2014 Rise Set
Actual Time
Civil Twilight
Nautical Twilight
Astronomical Twilight
Moon
Length of Visible Light
Length of Day
Tomorrow will be .
, % of the Moon is Illuminated

Today's Extremes

State Highs State Lows

Community

WunderPhotos

Upload Photos

1,773,961 photos uploaded!

WunderBlogs® & News

Nearby

Air Quality

  Air Quality AQ Index Pollutant
Not available.

Snow Depth

Station Depth Elevation

Earthquake Activity

City Distance Mag. Time & Date
Minimum magnitude displayed is 2.5.

Coastal Water Temperatures

Place Temperature

Nearby Weather Stations